createdAt,value
2023-01-26T00:00:09.884Z,0
2023-01-26T00:01:09.517Z,0
2023-01-26T00:02:09.506Z,0
2023-01-26T00:03:09.490Z,0
2023-01-26T00:04:09.591Z,0
2023-01-26T00:05:09.560Z,0
2023-01-26T00:06:09.526Z,0
2023-01-26T00:07:09.538Z,0
2023-01-26T00:08:09.768Z,0
2023-01-26T00:09:09.527Z,0
2023-01-26T00:10:09.802Z,0
2023-01-26T00:11:09.497Z,0
2023-01-26T00:12:09.494Z,0
2023-01-26T00:13:09.510Z,0
2023-01-26T00:14:09.531Z,0
2023-01-26T00:15:09.505Z,0
2023-01-26T00:16:09.545Z,0
2023-01-26T00:17:09.500Z,0
2023-01-26T00:18:09.508Z,0
2023-01-26T00:19:09.527Z,0
2023-01-26T00:20:09.887Z,0
2023-01-26T00:21:09.496Z,0
2023-01-26T00:22:09.519Z,0
2023-01-26T00:23:09.510Z,0
2023-01-26T00:24:09.585Z,0
2023-01-26T00:25:09.523Z,0
2023-01-26T00:26:09.500Z,0
2023-01-26T00:27:09.500Z,0
2023-01-26T00:28:09.490Z,0
2023-01-26T00:29:09.496Z,0
2023-01-26T00:30:09.828Z,0
2023-01-26T00:31:09.561Z,0
2023-01-26T00:32:09.500Z,0
2023-01-26T00:33:09.609Z,0
2023-01-26T00:34:09.507Z,0
2023-01-26T00:35:09.520Z,0
2023-01-26T00:36:09.500Z,0
2023-01-26T00:37:09.502Z,0
2023-01-26T00:38:09.503Z,0
2023-01-26T00:39:09.507Z,0
2023-01-26T00:40:09.893Z,0
2023-01-26T00:41:09.494Z,0
2023-01-26T00:42:09.493Z,0
2023-01-26T00:43:09.504Z,0
2023-01-26T00:44:09.503Z,0
2023-01-26T00:45:09.537Z,0
2023-01-26T00:46:09.510Z,0
2023-01-26T00:47:09.496Z,0
2023-01-26T00:48:09.497Z,0
2023-01-26T00:49:09.523Z,0
2023-01-26T00:50:09.989Z,0
2023-01-26T00:51:09.504Z,0
2023-01-26T00:52:09.501Z,0
2023-01-26T00:53:09.505Z,0
2023-01-26T00:54:09.506Z,0
2023-01-26T00:55:09.521Z,0
2023-01-26T00:56:09.496Z,0
2023-01-26T00:57:09.549Z,0
2023-01-26T00:58:09.501Z,0
2023-01-26T00:59:09.503Z,0
2023-01-26T01:00:09.927Z,0
2023-01-26T01:01:09.592Z,0
2023-01-26T01:02:09.613Z,0
2023-01-26T01:03:09.530Z,0
2023-01-26T01:04:09.519Z,0
2023-01-26T01:05:09.515Z,0
2023-01-26T01:06:09.560Z,0
2023-01-26T01:07:09.501Z,0
2023-01-26T01:08:09.512Z,0
2023-01-26T01:09:09.507Z,0
2023-01-26T01:10:09.891Z,0
2023-01-26T01:11:09.503Z,0
2023-01-26T01:12:09.495Z,0
2023-01-26T01:13:09.499Z,0
2023-01-26T01:14:09.492Z,0
2023-01-26T01:15:09.499Z,0
2023-01-26T01:16:09.534Z,0
2023-01-26T01:17:09.505Z,0
2023-01-26T01:18:09.497Z,0
2023-01-26T01:19:09.502Z,0
2023-01-26T01:20:10.012Z,0
2023-01-26T01:21:09.501Z,0
2023-01-26T01:22:09.493Z,0
2023-01-26T01:23:09.807Z,0
2023-01-26T01:24:10.302Z,0
2023-01-26T01:25:10.422Z,0
2023-01-26T01:26:10.483Z,0
2023-01-26T01:27:10.177Z,0
2023-01-26T01:28:09.513Z,0
2023-01-26T01:29:09.499Z,0
2023-01-26T01:30:10.062Z,0
2023-01-26T01:31:09.706Z,0
2023-01-26T01:32:09.515Z,0
2023-01-26T01:33:09.530Z,0
2023-01-26T01:34:09.502Z,0
2023-01-26T01:35:09.500Z,0
2023-01-26T01:36:09.499Z,0
2023-01-26T01:37:09.516Z,0
2023-01-26T01:38:09.507Z,0
2023-01-26T01:39:09.501Z,0
2023-01-26T01:40:09.797Z,0
2023-01-26T01:41:09.507Z,0
2023-01-26T01:42:09.515Z,0
2023-01-26T01:43:09.507Z,0
2023-01-26T01:44:09.497Z,0
2023-01-26T01:45:09.494Z,0
2023-01-26T01:46:09.492Z,0
2023-01-26T01:47:09.516Z,0
2023-01-26T01:48:09.518Z,0
2023-01-26T01:49:09.498Z,0
2023-01-26T01:50:09.743Z,0
2023-01-26T01:51:09.505Z,0
2023-01-26T01:52:09.501Z,0
2023-01-26T01:53:09.507Z,0
2023-01-26T01:54:09.504Z,0
2023-01-26T01:55:09.512Z,0
2023-01-26T01:56:09.491Z,0
2023-01-26T01:57:09.490Z,0
2023-01-26T01:58:09.496Z,0
2023-01-26T01:59:09.501Z,0
2023-01-26T02:00:09.722Z,0
2023-01-26T02:01:09.567Z,0
2023-01-26T02:02:09.551Z,0
2023-01-26T02:03:09.491Z,0
2023-01-26T02:04:09.518Z,0
2023-01-26T02:05:09.503Z,0
2023-01-26T02:06:09.500Z,0
2023-01-26T02:07:09.502Z,0
2023-01-26T02:08:09.505Z,0
2023-01-26T02:09:09.502Z,0
2023-01-26T02:10:09.794Z,0
2023-01-26T02:11:09.524Z,0
2023-01-26T02:12:09.499Z,0
2023-01-26T02:13:09.520Z,0
2023-01-26T02:14:09.493Z,0
2023-01-26T02:15:09.497Z,0
2023-01-26T02:16:09.529Z,0
2023-01-26T02:17:09.493Z,0
2023-01-26T02:18:09.491Z,0
2023-01-26T02:19:09.496Z,0
2023-01-26T02:20:09.989Z,0
2023-01-26T02:21:09.496Z,0
2023-01-26T02:22:09.491Z,0
2023-01-26T02:23:09.520Z,0
2023-01-26T02:24:09.560Z,0
2023-01-26T02:25:09.499Z,0
2023-01-26T02:26:09.511Z,0
2023-01-26T02:27:09.601Z,0
2023-01-26T02:28:09.495Z,0
2023-01-26T02:29:09.535Z,0
2023-01-26T02:30:09.756Z,0
2023-01-26T02:31:09.589Z,0
2023-01-26T02:32:09.513Z,0
2023-01-26T02:33:09.501Z,0
2023-01-26T02:34:09.490Z,0
2023-01-26T02:35:09.567Z,0
2023-01-26T02:36:09.516Z,0
2023-01-26T02:37:09.519Z,0
2023-01-26T02:38:09.498Z,0
2023-01-26T02:39:09.492Z,0
2023-01-26T02:40:09.870Z,0
2023-01-26T02:41:09.503Z,0
2023-01-26T02:42:09.539Z,0
2023-01-26T02:43:09.498Z,0
2023-01-26T02:44:09.735Z,0
2023-01-26T02:45:09.496Z,0
2023-01-26T02:46:09.547Z,0
2023-01-26T02:47:09.500Z,0
2023-01-26T02:48:09.504Z,0
2023-01-26T02:49:09.506Z,0
2023-01-26T02:50:09.937Z,0
2023-01-26T02:51:09.496Z,0
2023-01-26T02:52:09.539Z,0
2023-01-26T02:53:09.784Z,0
2023-01-26T02:54:09.603Z,0
2023-01-26T02:55:09.977Z,0
2023-01-26T02:56:09.658Z,0
2023-01-26T02:57:09.504Z,0
2023-01-26T02:58:09.523Z,0
2023-01-26T02:59:09.504Z,0
2023-01-26T03:00:09.728Z,0
2023-01-26T03:01:09.540Z,0
2023-01-26T03:02:09.560Z,0
2023-01-26T03:03:09.571Z,0
2023-01-26T03:04:09.765Z,0
2023-01-26T03:05:09.707Z,0
2023-01-26T03:06:09.580Z,0
2023-01-26T03:07:09.754Z,0
2023-01-26T03:08:09.961Z,0
2023-01-26T03:09:09.508Z,0
2023-01-26T03:10:09.929Z,0
2023-01-26T03:11:09.539Z,0
2023-01-26T03:12:09.566Z,0
2023-01-26T03:13:09.787Z,0
2023-01-26T03:14:09.491Z,0
2023-01-26T03:15:09.494Z,0
2023-01-26T03:16:09.550Z,0
2023-01-26T03:17:09.511Z,0
2023-01-26T03:18:09.487Z,0
2023-01-26T03:19:09.497Z,0
2023-01-26T03:20:09.873Z,0
2023-01-26T03:21:09.508Z,0
2023-01-26T03:22:09.539Z,0
2023-01-26T03:23:09.539Z,0
2023-01-26T03:24:09.529Z,0
2023-01-26T03:25:09.500Z,0
2023-01-26T03:26:09.499Z,0
2023-01-26T03:27:09.494Z,0
2023-01-26T03:28:09.527Z,0
2023-01-26T03:29:09.501Z,0
2023-01-26T03:30:09.805Z,0
2023-01-26T03:31:09.537Z,0
2023-01-26T03:32:09.504Z,0
2023-01-26T03:33:09.521Z,0
2023-01-26T03:34:09.503Z,0
2023-01-26T03:35:09.521Z,0
2023-01-26T03:36:09.620Z,0
2023-01-26T03:37:09.521Z,0
2023-01-26T03:38:09.508Z,0
2023-01-26T03:39:09.533Z,0
2023-01-26T03:40:10.021Z,0
2023-01-26T03:41:09.512Z,0
2023-01-26T03:42:09.515Z,0
2023-01-26T03:43:09.731Z,0
2023-01-26T03:44:09.496Z,0
2023-01-26T03:45:09.544Z,0
2023-01-26T03:46:09.513Z,0
2023-01-26T03:47:09.504Z,0
2023-01-26T03:48:09.501Z,0
2023-01-26T03:49:09.520Z,0
2023-01-26T03:50:09.905Z,0
2023-01-26T03:51:09.512Z,0
2023-01-26T03:52:09.516Z,0
2023-01-26T03:53:09.506Z,0
2023-01-26T03:54:09.489Z,0
2023-01-26T03:55:09.527Z,0
2023-01-26T03:56:09.543Z,0
2023-01-26T03:57:09.497Z,0
2023-01-26T03:58:09.543Z,0
2023-01-26T03:59:09.513Z,0
2023-01-26T04:00:09.946Z,0
2023-01-26T04:01:09.498Z,0
2023-01-26T04:02:09.560Z,0
2023-01-26T04:03:09.493Z,0
2023-01-26T04:04:09.503Z,0
2023-01-26T04:05:09.498Z,0
2023-01-26T04:06:15.984Z,0
2023-01-26T04:07:09.528Z,0
2023-01-26T04:08:09.517Z,0
2023-01-26T04:09:09.491Z,0
2023-01-26T04:10:09.759Z,0
2023-01-26T04:11:09.504Z,0
2023-01-26T04:12:09.518Z,0
2023-01-26T04:13:09.500Z,0
2023-01-26T04:14:09.504Z,0
2023-01-26T04:15:09.499Z,0
2023-01-26T04:16:09.535Z,0
2023-01-26T04:17:09.581Z,0
2023-01-26T04:18:09.512Z,0
2023-01-26T04:19:09.509Z,0
2023-01-26T04:20:09.789Z,0
2023-01-26T04:21:09.514Z,0
2023-01-26T04:22:09.501Z,0
2023-01-26T04:23:09.507Z,0
2023-01-26T04:24:09.590Z,0
2023-01-26T04:25:09.495Z,0
2023-01-26T04:26:09.494Z,0
2023-01-26T04:27:09.494Z,0
2023-01-26T04:28:09.524Z,0
2023-01-26T04:29:09.495Z,0
2023-01-26T04:30:09.763Z,0
2023-01-26T04:31:09.544Z,0
2023-01-26T04:32:09.500Z,0
2023-01-26T04:33:09.490Z,0
2023-01-26T04:34:09.487Z,0
2023-01-26T04:35:09.498Z,0
2023-01-26T04:36:09.512Z,0
2023-01-26T04:37:09.505Z,0
2023-01-26T04:38:09.487Z,0
2023-01-26T04:39:09.502Z,0
2023-01-26T04:40:09.757Z,0
2023-01-26T04:41:09.500Z,0
2023-01-26T04:42:09.506Z,0
2023-01-26T04:43:09.520Z,0
2023-01-26T04:44:09.523Z,0
2023-01-26T04:45:09.498Z,0
2023-01-26T04:46:09.515Z,0
2023-01-26T04:47:09.517Z,0
2023-01-26T04:48:09.506Z,0
2023-01-26T04:49:09.491Z,0
2023-01-26T04:50:09.784Z,0
2023-01-26T04:51:09.498Z,0
2023-01-26T04:52:09.518Z,0
2023-01-26T04:53:09.506Z,0
2023-01-26T04:54:09.491Z,0
2023-01-26T04:55:09.496Z,0
2023-01-26T04:56:09.492Z,0
2023-01-26T04:57:09.593Z,0
2023-01-26T04:58:09.992Z,0
2023-01-26T04:59:09.755Z,0
2023-01-26T05:00:12.766Z,0
2023-01-26T05:01:09.639Z,0
2023-01-26T05:02:09.604Z,0
2023-01-26T05:03:10.442Z,0
2023-01-26T05:04:09.683Z,0
2023-01-26T05:05:09.599Z,0
2023-01-26T05:06:09.605Z,0
2023-01-26T05:07:09.593Z,0
2023-01-26T05:08:09.685Z,0
2023-01-26T05:09:09.591Z,0
2023-01-26T05:10:09.896Z,0
2023-01-26T05:11:09.564Z,0
2023-01-26T05:12:09.565Z,0
2023-01-26T05:13:09.569Z,0
2023-01-26T05:14:09.746Z,0
2023-01-26T05:15:09.599Z,0
2023-01-26T05:16:09.613Z,0
2023-01-26T05:17:09.562Z,0
2023-01-26T05:18:09.571Z,0
2023-01-26T05:19:09.572Z,0
2023-01-26T05:20:09.933Z,0
2023-01-26T05:21:09.600Z,0
2023-01-26T05:22:11.563Z,0
2023-01-26T05:23:09.576Z,0
2023-01-26T05:24:09.749Z,0
2023-01-26T05:25:09.572Z,0
2023-01-26T05:26:09.764Z,0
2023-01-26T05:27:09.508Z,0
2023-01-26T05:28:09.518Z,0
2023-01-26T05:29:09.518Z,0
2023-01-26T05:30:10.875Z,0
2023-01-26T05:31:09.548Z,0
2023-01-26T05:32:09.494Z,0
2023-01-26T05:33:09.550Z,0
2023-01-26T05:34:09.517Z,0
2023-01-26T05:35:09.510Z,0
2023-01-26T05:36:09.506Z,0
2023-01-26T05:37:09.512Z,0
2023-01-26T05:38:09.504Z,0
2023-01-26T05:39:09.503Z,0
2023-01-26T05:40:09.808Z,0
2023-01-26T05:41:09.506Z,0
2023-01-26T05:42:09.648Z,0
2023-01-26T05:43:09.508Z,0
2023-01-26T05:44:10.468Z,0
2023-01-26T05:45:09.512Z,0
2023-01-26T05:46:09.667Z,0
2023-01-26T05:47:09.499Z,0
2023-01-26T05:48:09.506Z,0
2023-01-26T05:49:09.516Z,0
2023-01-26T05:50:09.847Z,0
2023-01-26T05:51:09.493Z,0
2023-01-26T05:52:09.514Z,0
2023-01-26T05:53:09.504Z,0
2023-01-26T05:54:09.510Z,0
2023-01-26T05:55:09.632Z,0
2023-01-26T05:56:09.488Z,0
2023-01-26T05:57:09.511Z,0
2023-01-26T05:58:09.490Z,0
2023-01-26T05:59:09.529Z,0
2023-01-26T06:00:09.786Z,0
2023-01-26T06:01:09.493Z,0
2023-01-26T06:02:09.520Z,0
2023-01-26T06:03:09.736Z,0
2023-01-26T06:04:09.553Z,0
2023-01-26T06:05:09.510Z,0
2023-01-26T06:06:09.524Z,0
2023-01-26T06:07:09.502Z,0
2023-01-26T06:08:09.511Z,0
2023-01-26T06:09:09.515Z,0
2023-01-26T06:10:09.954Z,0
2023-01-26T06:11:09.760Z,0
2023-01-26T06:12:09.497Z,0
2023-01-26T06:13:09.505Z,0
2023-01-26T06:14:09.493Z,0
2023-01-26T06:15:09.514Z,0
2023-01-26T06:16:09.541Z,0
2023-01-26T06:17:09.503Z,0
2023-01-26T06:18:09.522Z,0
2023-01-26T06:19:09.661Z,0
2023-01-26T06:20:09.770Z,0
2023-01-26T06:21:09.516Z,0
2023-01-26T06:22:09.497Z,0
2023-01-26T06:23:09.500Z,0
2023-01-26T06:24:09.549Z,0
2023-01-26T06:25:09.593Z,0
2023-01-26T06:26:10.910Z,0
2023-01-26T06:27:09.503Z,0
2023-01-26T06:28:09.498Z,0
2023-01-26T06:29:09.493Z,0
2023-01-26T06:30:09.756Z,0
2023-01-26T06:31:09.595Z,0
2023-01-26T06:32:09.496Z,0
2023-01-26T06:33:09.517Z,0
2023-01-26T06:34:09.516Z,0.23
2023-01-26T06:35:09.490Z,0.23
2023-01-26T06:36:09.510Z,0.23
2023-01-26T06:37:09.520Z,0.23
2023-01-26T06:38:09.520Z,0.23
2023-01-26T06:39:09.499Z,0.46
2023-01-26T06:40:09.813Z,0.46
2023-01-26T06:41:09.506Z,0.46
2023-01-26T06:42:09.611Z,0.46
2023-01-26T06:43:09.788Z,0.69
2023-01-26T06:44:09.525Z,0.92
2023-01-26T06:45:10.358Z,1.15
2023-01-26T06:46:09.560Z,1.15
2023-01-26T06:47:09.508Z,1.38
2023-01-26T06:48:09.756Z,1.84
2023-01-26T06:49:09.504Z,2.07
2023-01-26T06:50:09.835Z,2.3
2023-01-26T06:51:09.521Z,2.53
2023-01-26T06:52:09.514Z,2.99
2023-01-26T06:53:09.593Z,3.22
2023-01-26T06:54:09.505Z,3.68
2023-01-26T06:55:09.509Z,4.14
2023-01-26T06:56:09.491Z,4.83
2023-01-26T06:57:09.527Z,5.98
2023-01-26T06:58:09.503Z,7.36
2023-01-26T06:59:09.499Z,8.28
2023-01-26T07:00:09.701Z,9.2
2023-01-26T07:01:09.528Z,10.83
2023-01-26T07:02:09.558Z,12.5
2023-01-26T07:03:09.496Z,13.33
2023-01-26T07:04:09.489Z,15
2023-01-26T07:05:11.056Z,16.67
2023-01-26T07:06:09.494Z,18.33
2023-01-26T07:07:09.514Z,20.83
2023-01-26T07:08:09.503Z,23.33
2023-01-26T07:09:09.497Z,25
2023-01-26T07:10:09.786Z,26.67
2023-01-26T07:11:09.496Z,29.17
2023-01-26T07:12:09.555Z,31.67
2023-01-26T07:13:09.491Z,34.17
2023-01-26T07:14:09.499Z,37.5
2023-01-26T07:15:09.531Z,41.67
2023-01-26T07:16:09.539Z,47.5
2023-01-26T07:17:09.499Z,53.33
2023-01-26T07:18:09.512Z,60
2023-01-26T07:19:09.774Z,66.67
2023-01-26T07:20:09.785Z,72.5
2023-01-26T07:21:09.594Z,85
2023-01-26T07:22:09.494Z,93.33
2023-01-26T07:23:09.645Z,103.33
2023-01-26T07:24:09.916Z,111.67
2023-01-26T07:25:09.829Z,125
2023-01-26T07:26:09.708Z,130
2023-01-26T07:27:09.861Z,137.5
2023-01-26T07:28:09.770Z,158.33
2023-01-26T07:29:09.723Z,171.67
2023-01-26T07:30:10.162Z,176.67
2023-01-26T07:31:09.656Z,192.5
2023-01-26T07:32:09.783Z,215.83
2023-01-26T07:33:09.996Z,244.17
2023-01-26T07:34:09.503Z,273.33
2023-01-26T07:35:09.508Z,288.33
2023-01-26T07:36:09.591Z,290.83
2023-01-26T07:37:09.500Z,312.5
2023-01-26T07:38:09.517Z,326.67
2023-01-26T07:39:09.502Z,320
2023-01-26T07:40:09.892Z,349.17
2023-01-26T07:41:09.509Z,378.33
2023-01-26T07:42:09.517Z,402.5
2023-01-26T07:43:09.497Z,430
2023-01-26T07:44:09.591Z,458.33
2023-01-26T07:45:09.507Z,463.33
2023-01-26T07:46:09.536Z,449.17
2023-01-26T07:47:09.494Z,450
2023-01-26T07:48:09.500Z,450
2023-01-26T07:49:09.501Z,464.17
2023-01-26T07:50:09.835Z,465.83
2023-01-26T07:51:09.503Z,441.67
2023-01-26T07:52:09.510Z,438.33
2023-01-26T07:53:09.502Z,461.67
2023-01-26T07:54:09.500Z,480
2023-01-26T07:55:09.500Z,497.5
2023-01-26T07:56:09.502Z,535.83
2023-01-26T07:57:09.499Z,585
2023-01-26T07:58:09.495Z,617.5
2023-01-26T07:59:09.495Z,657.5
2023-01-26T08:00:09.837Z,675
2023-01-26T08:01:09.512Z,682.5
2023-01-26T08:02:09.503Z,733.33
2023-01-26T08:03:09.555Z,761.67
2023-01-26T08:04:09.500Z,758.33
2023-01-26T08:05:09.512Z,772.5
2023-01-26T08:06:11.867Z,755
2023-01-26T08:07:09.487Z,763.33
2023-01-26T08:08:09.535Z,796.67
2023-01-26T08:09:09.497Z,865.83
2023-01-26T08:10:09.869Z,873.33
2023-01-26T08:11:09.507Z,914.17
2023-01-26T08:12:09.490Z,1077.5
2023-01-26T08:13:09.496Z,1160.83
2023-01-26T08:14:09.504Z,1160.83
2023-01-26T08:15:09.510Z,1090
2023-01-26T08:16:09.586Z,1071.67
2023-01-26T08:17:09.499Z,1105
2023-01-26T08:18:09.507Z,1131.67
2023-01-26T08:19:09.495Z,1225.83
2023-01-26T08:20:09.787Z,1248.33
2023-01-26T08:21:09.525Z,1260.83
2023-01-26T08:22:09.489Z,1255
2023-01-26T08:23:09.496Z,1175
2023-01-26T08:24:09.517Z,1145.83
2023-01-26T08:25:09.515Z,1129.17
2023-01-26T08:26:09.530Z,1164.17
2023-01-26T08:27:09.488Z,1192.5
2023-01-26T08:28:09.492Z,1200.83
2023-01-26T08:29:09.498Z,1171.67
2023-01-26T08:30:09.933Z,1160.83
2023-01-26T08:31:09.580Z,1163.33
2023-01-26T08:32:09.547Z,1165
2023-01-26T08:33:09.510Z,1181.67
2023-01-26T08:34:09.498Z,1233.33
2023-01-26T08:35:09.517Z,1252.5
2023-01-26T08:36:09.528Z,1263.33
2023-01-26T08:37:09.505Z,1248.33
2023-01-26T08:38:09.530Z,1256.67
2023-01-26T08:39:09.500Z,1286.67
2023-01-26T08:40:09.609Z,1275.83
2023-01-26T08:41:09.500Z,1265
2023-01-26T08:42:09.488Z,1306.67
2023-01-26T08:43:09.499Z,1348.33
2023-01-26T08:44:09.514Z,1343.33
2023-01-26T08:45:09.491Z,1359.17
2023-01-26T08:46:09.543Z,1395
2023-01-26T08:47:09.706Z,1418.33
2023-01-26T08:48:09.507Z,1380.83
2023-01-26T08:49:09.511Z,1280
2023-01-26T08:50:09.808Z,1269.17
2023-01-26T08:51:09.492Z,1264.17
2023-01-26T08:52:09.494Z,1302.5
2023-01-26T08:53:09.498Z,1222.5
2023-01-26T08:54:09.513Z,1249.17
2023-01-26T08:55:09.505Z,1186.67
2023-01-26T08:56:09.503Z,1114.17
2023-01-26T08:57:09.505Z,1063.33
2023-01-26T08:58:09.504Z,1058.33
2023-01-26T08:59:09.517Z,1105
2023-01-26T09:00:09.737Z,1195.83
2023-01-26T09:01:09.524Z,1242.5
2023-01-26T09:02:09.596Z,1263.33
2023-01-26T09:03:09.641Z,1324.17
2023-01-26T09:04:09.501Z,1385.83
2023-01-26T09:05:09.514Z,1511.67
2023-01-26T09:06:09.524Z,1545
2023-01-26T09:07:09.519Z,1508.33
2023-01-26T09:08:09.518Z,1431.67
2023-01-26T09:09:09.512Z,1391.67
2023-01-26T09:10:09.959Z,1335
2023-01-26T09:11:09.527Z,1395.83
2023-01-26T09:12:09.494Z,1575.83
2023-01-26T09:13:09.510Z,1587.5
2023-01-26T09:14:09.555Z,1688.33
2023-01-26T09:15:09.501Z,1858.33
2023-01-26T09:16:09.503Z,1878.33
2023-01-26T09:17:09.513Z,1820.83
2023-01-26T09:18:09.511Z,1908.33
2023-01-26T09:19:09.513Z,1889.17
2023-01-26T09:20:09.738Z,1825
2023-01-26T09:21:09.512Z,1933.33
2023-01-26T09:22:09.535Z,1855
2023-01-26T09:23:09.504Z,1929.17
2023-01-26T09:24:09.526Z,2072.5
2023-01-26T09:25:09.634Z,2250
2023-01-26T09:26:09.512Z,2359.17
2023-01-26T09:27:09.498Z,2428.33
2023-01-26T09:28:09.489Z,2791.67
2023-01-26T09:29:09.614Z,3109.17
2023-01-26T09:30:09.550Z,3143.33
2023-01-26T09:31:09.588Z,3290.83
2023-01-26T09:32:09.497Z,3382.5
2023-01-26T09:33:09.497Z,3523.33
2023-01-26T09:34:09.500Z,3417.5
2023-01-26T09:35:10.911Z,3275.83
2023-01-26T09:36:09.519Z,3117.5
2023-01-26T09:37:09.490Z,3040
2023-01-26T09:38:09.507Z,3063.33
2023-01-26T09:39:09.490Z,3245.83
2023-01-26T09:40:09.738Z,3299.17
2023-01-26T09:41:09.504Z,3388.33
2023-01-26T09:42:11.036Z,3162.5
2023-01-26T09:43:09.493Z,3040
2023-01-26T09:44:09.498Z,3095
2023-01-26T09:45:09.717Z,3001.67
2023-01-26T09:46:09.562Z,2813.33
2023-01-26T09:47:09.510Z,2660.83
2023-01-26T09:48:09.503Z,2711.67
2023-01-26T09:49:09.494Z,2960.83
2023-01-26T09:50:09.662Z,3050
2023-01-26T09:51:09.504Z,3019.17
2023-01-26T09:52:09.614Z,2832.5
2023-01-26T09:53:09.787Z,2968.33
2023-01-26T09:54:09.929Z,3535
2023-01-26T09:55:09.729Z,3985.83
2023-01-26T09:56:09.512Z,4160
2023-01-26T09:57:09.583Z,4528.33
2023-01-26T09:58:09.493Z,4480
2023-01-26T09:59:09.683Z,4460.83
2023-01-26T10:00:09.539Z,4623.33
2023-01-26T10:01:09.518Z,4787.5
2023-01-26T10:02:09.492Z,4833.33
2023-01-26T10:03:09.513Z,4887.5
2023-01-26T10:04:09.497Z,4840
2023-01-26T10:05:09.707Z,4799.17
2023-01-26T10:06:09.495Z,5044.17
2023-01-26T10:07:09.512Z,5542.5
2023-01-26T10:08:09.496Z,5908.33
2023-01-26T10:09:09.506Z,5929.17
2023-01-26T10:10:09.504Z,5403.33
2023-01-26T10:11:09.615Z,4923.33
2023-01-26T10:12:09.490Z,4152.5
2023-01-26T10:13:09.502Z,3850.83
2023-01-26T10:14:09.510Z,3854.17
2023-01-26T10:15:09.505Z,3948.33
2023-01-26T10:16:09.550Z,3765.83
2023-01-26T10:17:09.505Z,3542.5
2023-01-26T10:18:09.663Z,3470.83
2023-01-26T10:19:09.514Z,3747.5
2023-01-26T10:20:09.521Z,3885.83
2023-01-26T10:21:09.771Z,3634.17
2023-01-26T10:22:09.499Z,3470
2023-01-26T10:23:09.571Z,3398.33
2023-01-26T10:24:09.864Z,3480.83
2023-01-26T10:25:09.842Z,3430.83
2023-01-26T10:26:09.507Z,3205.83
2023-01-26T10:27:09.520Z,3319.17
2023-01-26T10:28:09.515Z,3567.5
2023-01-26T10:29:09.510Z,3602.5
2023-01-26T10:30:09.492Z,3400
2023-01-26T10:31:09.586Z,3148.33
2023-01-26T10:32:09.495Z,3405.83
2023-01-26T10:33:09.508Z,3468.33
2023-01-26T10:34:09.510Z,3421.67
2023-01-26T10:35:09.658Z,2964.17
2023-01-26T10:36:09.490Z,2868.33
2023-01-26T10:37:09.503Z,2720
2023-01-26T10:38:09.527Z,2585
2023-01-26T10:39:09.500Z,2448.33
2023-01-26T10:40:09.612Z,2390.83
2023-01-26T10:41:09.499Z,2217.5
2023-01-26T10:42:09.501Z,2137.5
2023-01-26T10:43:09.520Z,2024.17
2023-01-26T10:44:09.520Z,1900.83
2023-01-26T10:45:09.493Z,1814.17
2023-01-26T10:46:09.618Z,1824.17
2023-01-26T10:47:09.494Z,1925.83
2023-01-26T10:48:09.519Z,1760.83
2023-01-26T10:49:09.513Z,1860.83
2023-01-26T10:50:09.516Z,1883.33
2023-01-26T10:51:09.495Z,2080
2023-01-26T10:52:09.524Z,2291.67
2023-01-26T10:53:09.527Z,2320
2023-01-26T10:54:09.609Z,2163.33
2023-01-26T10:55:10.115Z,2337.5
2023-01-26T10:56:09.647Z,2359.17
2023-01-26T10:57:09.539Z,2350.83
2023-01-26T10:58:09.809Z,2306.67
2023-01-26T10:59:09.700Z,2287.5
2023-01-26T11:00:09.512Z,2345.83
2023-01-26T11:01:09.741Z,2400
2023-01-26T11:02:10.011Z,2611.67
2023-01-26T11:03:09.521Z,2600.83
2023-01-26T11:04:09.657Z,2880.83
2023-01-26T11:05:09.811Z,3119.17
2023-01-26T11:06:09.771Z,3120.83
2023-01-26T11:07:09.650Z,3135.83
2023-01-26T11:08:09.502Z,3137.5
2023-01-26T11:09:09.499Z,3259.17
2023-01-26T11:10:09.532Z,3277.5
2023-01-26T11:11:09.501Z,3095.83
2023-01-26T11:12:09.508Z,3053.33
2023-01-26T11:13:09.524Z,2950.83
2023-01-26T11:14:09.499Z,2774.17
2023-01-26T11:15:09.792Z,2721.67
2023-01-26T11:16:09.535Z,2840.83
2023-01-26T11:17:09.505Z,3010
2023-01-26T11:18:09.497Z,3222.5
2023-01-26T11:19:09.507Z,3625.83
2023-01-26T11:20:09.539Z,4175
2023-01-26T11:21:09.519Z,4652.5
2023-01-26T11:22:09.668Z,4760
2023-01-26T11:23:09.498Z,4905
2023-01-26T11:24:09.587Z,5470.83
2023-01-26T11:25:09.863Z,6073.33
2023-01-26T11:26:09.503Z,6309.17
2023-01-26T11:27:09.511Z,6762.5
2023-01-26T11:28:09.503Z,6580.83
2023-01-26T11:29:09.506Z,5963.33
2023-01-26T11:30:09.524Z,5992.5
2023-01-26T11:31:09.577Z,5681.67
2023-01-26T11:32:09.504Z,5346.67
2023-01-26T11:33:09.497Z,4779.17
2023-01-26T11:34:09.521Z,4595.83
2023-01-26T11:35:09.853Z,4825
2023-01-26T11:36:09.495Z,4800
2023-01-26T11:37:09.503Z,4795.83
2023-01-26T11:38:09.540Z,4596.67
2023-01-26T11:39:09.499Z,4640.83
2023-01-26T11:40:09.511Z,4177.5
2023-01-26T11:41:09.509Z,4054.17
2023-01-26T11:42:09.559Z,3837.5
2023-01-26T11:43:09.516Z,3972.5
2023-01-26T11:44:09.508Z,3792.5
2023-01-26T11:45:09.822Z,3545
2023-01-26T11:46:09.540Z,3501.67
2023-01-26T11:47:09.500Z,3545
2023-01-26T11:48:09.500Z,3274.17
2023-01-26T11:49:09.499Z,3771.67
2023-01-26T11:50:09.501Z,3879.17
2023-01-26T11:51:09.492Z,3322.5
2023-01-26T11:52:09.506Z,2972.5
2023-01-26T11:53:09.497Z,2739.17
2023-01-26T11:54:09.520Z,2838.33
2023-01-26T11:55:09.762Z,2981.67
2023-01-26T11:56:09.508Z,2826.67
2023-01-26T11:57:09.525Z,2685.83
2023-01-26T11:58:09.508Z,2746.67
2023-01-26T11:59:09.501Z,3136.67
2023-01-26T12:00:17.756Z,3197.5
2023-01-26T12:01:09.495Z,3014.17
2023-01-26T12:02:09.525Z,3325.83
2023-01-26T12:03:09.521Z,3240.83
2023-01-26T12:04:09.590Z,3238.33
2023-01-26T12:05:09.836Z,3130.83
2023-01-26T12:06:09.500Z,3156.67
2023-01-26T12:07:09.503Z,3011.67
2023-01-26T12:08:09.493Z,2810
2023-01-26T12:09:09.512Z,2490
2023-01-26T12:10:09.503Z,2461.67
2023-01-26T12:11:09.497Z,2332.5
2023-01-26T12:12:09.508Z,2395.83
2023-01-26T12:13:09.516Z,2453.33
2023-01-26T12:14:09.506Z,2511.67
2023-01-26T12:15:09.748Z,2604.17
2023-01-26T12:16:09.508Z,2598.33
2023-01-26T12:17:17.937Z,2432.5
2023-01-26T12:18:09.506Z,2414.17
2023-01-26T12:19:11.279Z,2608.33
2023-01-26T12:20:09.521Z,2304.17
2023-01-26T12:21:09.503Z,2464.17
2023-01-26T12:22:09.593Z,2409.17
2023-01-26T12:23:09.501Z,2572.5
2023-01-26T12:24:26.648Z,2600.83
2023-01-26T12:25:18.841Z,2591.67
2023-01-26T12:26:09.520Z,2477.5
2023-01-26T12:27:09.503Z,2421.67
2023-01-26T12:28:09.496Z,2255
2023-01-26T12:29:09.547Z,2125.83
2023-01-26T12:30:09.500Z,1973.33
2023-01-26T12:31:09.797Z,2050
2023-01-26T12:32:09.500Z,2045.83
2023-01-26T12:33:09.776Z,1986.67
2023-01-26T12:34:09.516Z,2045.83
2023-01-26T12:35:09.931Z,2155.83
2023-01-26T12:36:09.499Z,1887.5
2023-01-26T12:37:09.491Z,1869.17
2023-01-26T12:38:17.825Z,1975.83
2023-01-26T12:39:09.503Z,1996.67
2023-01-26T12:40:09.699Z,1938.33
2023-01-26T12:41:09.490Z,1800
2023-01-26T12:42:09.507Z,1937.5
2023-01-26T12:43:09.492Z,1931.67
2023-01-26T12:44:09.589Z,2105.83
2023-01-26T12:45:09.840Z,2064.17
2023-01-26T12:46:09.555Z,2084.17
2023-01-26T12:47:09.487Z,2178.33
2023-01-26T12:48:09.499Z,2295.83
2023-01-26T12:49:09.513Z,2593.33
2023-01-26T12:50:09.872Z,2702.5
2023-01-26T12:51:09.508Z,2532.5
2023-01-26T12:52:09.514Z,2512.5
2023-01-26T12:53:09.491Z,2355
2023-01-26T12:54:09.700Z,2480.83
2023-01-26T12:55:09.667Z,2366.67
2023-01-26T12:56:09.501Z,2533.33
2023-01-26T12:57:09.498Z,2560
2023-01-26T12:58:09.502Z,2407.5
2023-01-26T12:59:09.504Z,2450
2023-01-26T13:00:09.842Z,2646.67
2023-01-26T13:01:09.583Z,2617.5
2023-01-26T13:02:09.560Z,2590.83
2023-01-26T13:03:09.520Z,2435.83
2023-01-26T13:04:09.499Z,2350
2023-01-26T13:05:09.528Z,2147.5
2023-01-26T13:06:09.493Z,2085
2023-01-26T13:07:09.493Z,1955.83
2023-01-26T13:08:09.503Z,1936.67
2023-01-26T13:09:09.531Z,1929.17
2023-01-26T13:10:09.678Z,1905.83
2023-01-26T13:11:09.500Z,1834.17
2023-01-26T13:12:09.494Z,1742.5
2023-01-26T13:13:09.498Z,1675
2023-01-26T13:14:09.509Z,1599.17
2023-01-26T13:15:09.799Z,1550
2023-01-26T13:16:09.543Z,1579.17
2023-01-26T13:17:09.500Z,1647.5
2023-01-26T13:18:09.498Z,1720.83
2023-01-26T13:19:09.507Z,1678.33
2023-01-26T13:20:09.864Z,1700.83
2023-01-26T13:21:09.511Z,1714.17
2023-01-26T13:22:09.504Z,1684.17
2023-01-26T13:23:09.498Z,1684.17
2023-01-26T13:24:09.544Z,1750
2023-01-26T13:25:09.527Z,1781.67
2023-01-26T13:26:10.197Z,1823.33
2023-01-26T13:27:09.516Z,1894.17
2023-01-26T13:28:09.530Z,1849.17
2023-01-26T13:29:09.525Z,1815.83
2023-01-26T13:30:09.849Z,1869.17